Airfield :
LOGIN :

Register | Disclaimer

   EN    FR    IT 

 










Legend :    VFR   Marginal VFR   IFR   Intensive IFR   Very Intensive IFR
Visi :
Ceiling :
>= 8 km
>= 3000ft
5 to 8 km
1000 to 3000 ft
1500m to 5 km
500 to 1000 ft
800 to 1500m
200 to 500 ft
< 800m
< 200 ft
Symbols :   Thunderstorms  Fog  Heavy snow  Heavy precipitations  Wind > 20 kt
SIGMETs :     Misc.  Thunderstorms  Icing  Turbulence  Mountain Waves  Volcanic Ashes







- Airport Elevation : 2096 ft
- IATA code : AUR
- Download approach charts


LFLW - Aurillac

CURRENT METAR :
  • 211230Z AUTO 16005KT 110V260 9999 FEW030/// BKN096/// ///CB 20/09 Q1013 TEMPO VRB15G25KT -TSRA

EXPIRED METARs :
  • 211200Z AUTO 16009KT 9999 -RA FEW028/// SCT047/// BKN060/// ///TCU 18/11 Q1013 TEMPO VRB15G25KT -TSRA SCT018 BKN022CB
  • 211130Z AUTO 19007KT 150V240 9999 BKN048/// ///TCU 19/10 Q1013 TEMPO VRB15G25KT -TSRA SCT018 BKN022CB
  • 211100Z AUTO 19007KT 140V220 9999 SCT045/// SCT060/// BKN100/// ///CB 20/10 Q1013 TEMPO SHRA
  • 211030Z AUTO 16008KT 9999 FEW044/// BKN140/// ///TCU 19/10 Q1014 TEMPO SHRA
  • 211000Z AUTO 17008KT 130V210 9999 ///TCU 19/10 Q1013 TEMPO SHRA

TAF TAF LFLW
Valid from the 21 at 12:00 until the 21 at 21:00 UTC


211100Z 2112/2121 16004KT 9999 FEW034TCU
TEMPO 2112/2118 6000 SHRA BKN026TCU
TEMPO 2113/2118 VRB15G25KT 5000 -TSRA SCT018 BKN022CB
No reported NOTAMs for that airfield.



MET'MAP, your aeronautical weather chart ! - Copyright ORBIFLY December 2007 - Disclaimer

ORBIFLY MET'MAP TEAM :

Programming & Development : Alexandra Zaïnal
Concept & Development : Baudouin d'Aumeries
Co-Development & Prog : Marc-Olivier Méhu
Technical & hardware support : Manuel Goepfert

Contact : metmap@orbifly.com




SOURCES & CREDITS :

   NOAA